Main page
METAR-TAF:

METAR-TAF

Airports :

Treviso Airport

Treviso, Italy

latitude: 45-39N, longitude: 012-11E, elevation: 18 m

Current weather observation

The report was made 33 minutes ago, at 02:50 UTC
Wind 1 kt from variable directions
Temperature 23°C
Humidity 65%
Pressure 1015 hPa
Visibility 10 km or more

METAR: LIPH 200250Z AUTO VRB01KT 9999 NCD 23/16 Q1015

Time: 05:23 (03:23 UTC)

Forecast

The report was made 4 hours and 23 minutes ago, at 23:00 UTC
Forecast valid from 20 at 00 UTC to 20 at 24 UTC
Wind 5 kt from variable directions
Visibility 10 km or more
no clouds below 1500 m and no cumulonimbus

TAF: LIPH 192300Z 2000/2024 VRB05KT CAVOK

Weather observations and forecasts of more than 4000 airports (METAR and TAF reports).

The available stations are represented by yellow and red dots on the map.

Hover mouse over dot to see the name of the station.

Then click to see weather observations and forecasts.

To change the map : click on the green buttons with a black cross to zoom in, on the green button with a dash to zoom out, or on the green arrows for adjacent maps.


METAR-TAF: